Time;durP1;ratioP1;P1;durP2;ratioP2;P2;SDS_P1;SDS_P2;PMS_P1;PMS_P2;Temp;Humidity;BMP_temperature;BMP_pressure;BME280_temperature;BME280_humidity;BME280_pressure;Samples;Min_cycle;Max_cycle;Signal;HPM_P1;HPM_P2
2022/01/08 00:00:07;;;;;;;61.13;31.77;;;20.50;54.10;;;;;;4958679;28;20042;-74
2022/01/08 00:02:39;;;;;;;77.13;34.42;;;20.60;55.00;;;;;;4975900;28;20031;-73
2022/01/08 00:05:05;;;;;;;90.00;37.00;;;20.70;56.50;;;;;;4976067;28;20029;-73
2022/01/08 00:07:30;;;;;;;89.35;38.70;;;20.80;58.10;;;;;;4975706;28;20380;-73
2022/01/08 00:09:56;;;;;;;87.00;35.97;;;20.80;59.20;;;;;;4975779;28;20026;-72
2022/01/08 00:12:23;;;;;;;71.68;34.58;;;20.90;61.50;;;;;;4975901;28;20070;-73
2022/01/08 00:14:49;;;;;;;71.22;33.20;;;20.90;60.30;;;;;;4975706;28;20049;-73
2022/01/08 00:17:14;;;;;;;94.40;37.63;;;20.90;57.60;;;;;;4975507;28;20114;-74
2022/01/08 00:19:40;;;;;;;81.18;36.15;;;20.90;60.10;;;;;;4958121;28;20039;-74
2022/01/08 00:22:06;;;;;;;80.35;35.25;;;20.80;59.80;;;;;;4975684;28;20038;-74
2022/01/08 00:24:32;;;;;;;74.57;34.58;;;20.80;58.20;;;;;;4975705;28;20030;-74
2022/01/08 00:26:57;;;;;;;70.47;31.88;;;20.70;57.70;;;;;;4975370;28;20053;-73
2022/01/08 00:29:23;;;;;;;73.15;32.47;;;20.70;57.40;;;;;;4974742;28;20038;-75
2022/01/08 00:31:49;;;;;;;65.75;32.53;;;20.70;57.10;;;;;;4975507;28;20455;-73
2022/01/08 00:34:14;;;;;;;61.75;30.58;;;20.70;57.00;;;;;;4958111;28;20053;-74
2022/01/08 00:36:40;;;;;;;66.07;31.67;;;20.70;56.90;;;;;;4975360;28;20027;-75
2022/01/08 00:39:07;;;;;;;60.25;29.33;;;20.60;56.80;;;;;;4975243;28;20049;-73
2022/01/08 00:41:32;;;;;;;61.75;30.45;;;20.60;56.80;;;;;;4958043;28;20061;-74
2022/01/08 00:43:58;;;;;;;60.42;30.00;;;20.60;56.80;;;;;;4958247;28;20023;-73
2022/01/08 00:46:24;;;;;;;64.00;30.55;;;20.60;56.70;;;;;;4957897;28;20034;-74
2022/01/08 00:48:49;;;;;;;61.40;28.83;;;20.60;56.60;;;;;;4974987;28;20034;-73
2022/01/08 00:51:15;;;;;;;64.43;30.58;;;20.60;56.70;;;;;;4975208;28;20439;-73
2022/01/08 00:53:43;;;;;;;58.88;29.42;;;20.60;57.30;;;;;;4975151;28;20388;-72
2022/01/08 00:56:14;;;;;;;57.78;28.75;;;20.60;56.70;;;;;;4974731;28;20037;-73
2022/01/08 00:58:41;;;;;;;56.33;28.58;;;20.60;56.70;;;;;;4975103;28;20049;-73
2022/01/08 01:01:07;;;;;;;58.03;27.67;;;20.60;56.70;;;;;;4974794;28;20149;-73
2022/01/08 01:03:33;;;;;;;59.65;27.42;;;20.60;56.70;;;;;;4975441;28;20104;-73
2022/01/08 01:05:59;;;;;;;54.53;27.77;;;20.60;56.80;;;;;;4974820;28;20629;-73
2022/01/08 01:08:25;;;;;;;52.30;26.85;;;20.60;56.70;;;;;;4958132;28;20031;-74
2022/01/08 01:10:51;;;;;;;52.95;27.50;;;20.60;56.70;;;;;;4957731;28;20045;-73
2022/01/08 01:13:17;;;;;;;55.63;27.70;;;20.60;56.70;;;;;;4976279;28;20110;-73
2022/01/08 01:15:43;;;;;;;55.08;26.33;;;20.60;56.70;;;;;;4976431;28;20058;-74
2022/01/08 01:18:09;;;;;;;60.70;26.35;;;20.60;56.80;;;;;;4959132;28;20026;-73
2022/01/08 01:20:35;;;;;;;55.60;27.33;;;20.60;56.70;;;;;;4926880;28;20045;-73
2022/01/08 01:25:37;;;;;;;52.60;26.05;;;20.60;56.70;;;;;;4959214;28;20038;-73
2022/01/08 01:28:14;;;;;;;46.72;24.73;;;20.60;56.50;;;;;;4959067;28;20496;-74
2022/01/08 01:41:39;;;;;;;50.78;23.83;;;20.50;57.10;;;;;;4974409;28;20035;-74
2022/01/08 01:49:20;;;;;;;50.58;24.50;;;20.50;57.30;;;;;;4957101;28;20031;-74
2022/01/08 01:51:46;;;;;;;54.15;23.00;;;20.50;56.70;;;;;;4957031;28;20031;-74
2022/01/08 01:54:12;;;;;;;44.50;23.23;;;20.50;56.70;;;;;;4940954;28;20047;-74
2022/01/08 01:56:38;;;;;;;44.40;22.38;;;20.50;56.80;;;;;;4941083;28;20046;-73
2022/01/08 01:59:05;;;;;;;42.63;23.33;;;20.50;56.60;;;;;;4974039;28;20026;-74
2022/01/08 02:01:31;;;;;;;48.72;22.35;;;20.50;56.80;;;;;;4973995;28;20034;-75
2022/01/08 02:03:57;;;;;;;43.13;22.67;;;20.50;56.70;;;;;;4974105;28;20055;-74
2022/01/08 02:06:23;;;;;;;41.95;22.27;;;20.50;56.70;;;;;;4973736;28;20089;-75
2022/01/08 02:08:48;;;;;;;42.90;21.05;;;20.50;56.70;;;;;;4974142;28;20062;-74
2022/01/08 02:11:17;;;;;;;44.58;22.08;;;20.50;56.70;;;;;;4973892;28;20031;-74
2022/01/08 02:13:42;;;;;;;43.13;22.30;;;20.50;56.70;;;;;;4973964;28;20043;-74
2022/01/08 02:16:16;;;;;;;44.47;22.35;;;20.50;56.80;;;;;;4973308;28;20502;-74
2022/01/08 02:18:44;;;;;;;40.47;20.88;;;20.50;56.70;;;;;;4973681;28;20496;-74
2022/01/08 02:21:12;;;;;;;38.75;21.83;;;20.50;56.70;;;;;;4989435;28;20023;-74
2022/01/08 02:23:39;;;;;;;41.78;21.15;;;20.50;56.70;;;;;;4992483;28;20097;-74
2022/01/08 02:26:06;;;;;;;41.25;22.17;;;20.50;56.60;;;;;;4991207;28;20022;-74
2022/01/08 02:28:33;;;;;;;36.85;20.70;;;20.50;56.70;;;;;;4992451;28;20081;-74
2022/01/08 02:30:59;;;;;;;37.90;20.13;;;20.50;56.50;;;;;;4992743;28;20085;-74
2022/01/08 02:33:26;;;;;;;42.83;21.23;;;20.50;56.60;;;;;;4993145;28;20026;-74
2022/01/08 02:35:52;;;;;;;39.65;20.63;;;20.50;56.50;;;;;;4975430;28;20034;-75
2022/01/08 02:38:17;;;;;;;39.55;20.13;;;20.50;56.60;;;;;;4992802;28;20118;-75
2022/01/08 02:40:55;;;;;;;41.58;20.85;;;20.50;56.50;;;;;;4975493;28;20398;-75
2022/01/08 02:43:23;;;;;;;37.10;20.33;;;20.50;56.50;;;;;;4992807;28;20030;-74
2022/01/08 02:45:49;;;;;;;35.38;19.67;;;20.50;56.60;;;;;;4975333;28;20030;-75
2022/01/08 02:48:15;;;;;;;36.25;19.58;;;20.50;56.50;;;;;;4959330;28;20026;-75
2022/01/08 02:50:41;;;;;;;38.13;20.10;;;20.50;56.50;;;;;;4992285;28;20033;-74
2022/01/08 02:53:06;;;;;;;35.03;18.83;;;20.50;56.60;;;;;;4992270;28;20022;-74
2022/01/08 02:55:32;;;;;;;30.42;18.02;;;20.50;56.60;;;;;;4992546;28;20022;-74
2022/01/08 02:57:58;;;;;;;36.08;18.75;;;20.50;56.50;;;;;;4992771;28;20594;-74
2022/01/08 03:00:23;;;;;;;36.22;19.00;;;20.50;56.60;;;;;;4992632;28;20030;-74
2022/01/08 03:02:52;;;;;;;34.72;18.77;;;20.50;56.50;;;;;;4992615;28;20173;-74
2022/01/08 03:05:18;;;;;;;36.47;19.23;;;20.50;56.60;;;;;;4992488;28;20042;-75
2022/01/08 03:07:45;;;;;;;34.47;19.17;;;20.50;56.40;;;;;;4992241;28;20034;-74
2022/01/08 03:10:16;;;;;;;34.55;18.80;;;20.50;56.60;;;;;;4975306;28;20031;-74
2022/01/08 03:12:42;;;;;;;34.67;18.65;;;20.50;56.60;;;;;;4992517;28;20089;-74
2022/01/08 03:15:14;;;;;;;33.70;18.70;;;20.50;56.60;;;;;;4992480;28;20035;-75
2022/01/08 03:17:41;;;;;;;32.08;17.92;;;20.50;56.60;;;;;;4992322;28;20027;-74
2022/01/08 03:20:10;;;;;;;32.70;17.75;;;20.40;56.60;;;;;;4974948;28;20113;-74
2022/01/08 03:22:38;;;;;;;32.45;17.58;;;20.50;56.70;;;;;;4993053;28;20575;-75
2022/01/08 03:25:06;;;;;;;32.67;17.45;;;20.50;56.70;;;;;;4992340;28;20022;-75
2022/01/08 03:27:32;;;;;;;27.27;16.33;;;20.50;56.60;;;;;;4992032;28;20494;-74
2022/01/08 03:29:58;;;;;;;33.42;17.70;;;20.50;56.70;;;;;;4992379;28;20034;-74
2022/01/08 03:32:24;;;;;;;31.13;17.60;;;20.50;56.60;;;;;;4992394;28;20027;-75
2022/01/08 03:34:50;;;;;;;32.05;16.98;;;20.50;56.70;;;;;;4992377;28;20030;-74
2022/01/08 03:37:16;;;;;;;33.05;17.05;;;20.50;56.60;;;;;;4991957;28;20026;-74
2022/01/08 03:39:42;;;;;;;28.65;16.05;;;20.50;56.60;;;;;;4992137;28;20105;-74
2022/01/08 03:42:08;;;;;;;31.58;16.98;;;20.50;56.60;;;;;;4992100;28;20030;-74
2022/01/08 03:44:34;;;;;;;30.25;16.70;;;20.50;56.70;;;;;;4991993;28;20026;-75
2022/01/08 03:47:22;;;;;;;30.90;15.80;;;20.50;56.70;;;;;;4991771;28;20018;-74
2022/01/08 03:49:46;;;;;;;30.90;16.42;;;20.50;56.70;;;;;;4992069;28;20026;-74
2022/01/08 03:52:12;;;;;;;31.05;16.45;;;20.50;56.70;;;;;;4974719;28;20034;-75
2022/01/08 03:54:39;;;;;;;29.73;16.10;;;20.50;57.20;;;;;;4992228;28;20052;-74
2022/01/08 03:57:05;;;;;;;29.65;16.50;;;20.50;56.70;;;;;;4991770;28;20034;-74
2022/01/08 03:59:30;;;;;;;32.10;16.75;;;20.50;56.60;;;;;;4992131;28;20105;-74
2022/01/08 04:01:56;;;;;;;28.13;15.13;;;20.50;56.50;;;;;;4991905;28;20463;-74
2022/01/08 04:04:22;;;;;;;27.13;15.65;;;20.50;56.30;;;;;;4995304;28;20026;-74
2022/01/08 04:06:48;;;;;;;29.90;15.68;;;20.50;56.40;;;;;;4995240;28;20026;-75
2022/01/08 04:09:14;;;;;;;26.88;15.20;;;20.50;56.50;;;;;;4978272;28;20525;-74
2022/01/08 04:11:40;;;;;;;26.35;15.32;;;20.50;56.50;;;;;;4995551;28;20037;-75
2022/01/08 04:14:05;;;;;;;26.17;14.40;;;20.50;56.50;;;;;;4995681;28;20026;-74
2022/01/08 04:16:34;;;;;;;27.67;15.40;;;20.50;56.50;;;;;;4995099;28;20039;-72
2022/01/08 04:19:00;;;;;;;26.23;13.52;;;20.50;56.40;;;;;;4995212;28;20533;-72
2022/01/08 04:23:53;;;;;;;24.88;14.32;;;20.50;56.60;;;;;;4995353;28;20113;-73
2022/01/08 04:26:21;;;;;;;26.08;14.85;;;20.50;56.60;;;;;;4994743;28;20033;-72
2022/01/08 04:28:48;;;;;;;24.67;14.65;;;20.50;56.70;;;;;;4978100;28;20582;-75
2022/01/08 04:31:14;;;;;;;23.95;13.82;;;20.50;56.60;;;;;;4995325;28;20045;-73
2022/01/08 04:33:40;;;;;;;26.00;14.75;;;20.50;56.70;;;;;;4995240;28;20049;-72
2022/01/08 04:36:05;;;;;;;23.08;13.73;;;20.50;56.70;;;;;;4994916;28;20472;-73
2022/01/08 04:38:32;;;;;;;24.05;14.30;;;20.50;56.70;;;;;;4994974;28;20458;-73
2022/01/08 04:40:58;;;;;;;22.73;12.88;;;20.50;56.80;;;;;;4994956;28;20033;-72
2022/01/08 04:43:24;;;;;;;24.45;14.10;;;20.50;56.80;;;;;;4977464;28;20026;-72
2022/01/08 04:45:51;;;;;;;23.20;13.77;;;20.50;56.80;;;;;;4994817;28;20059;-72
2022/01/08 04:48:17;;;;;;;24.77;13.50;;;20.50;56.80;;;;;;4994648;28;20459;-72
2022/01/08 04:50:42;;;;;;;22.48;13.55;;;20.50;56.80;;;;;;4994924;28;20034;-73
2022/01/08 04:53:08;;;;;;;23.83;13.73;;;20.50;56.70;;;;;;4994675;28;20105;-73
2022/01/08 04:55:34;;;;;;;22.13;12.70;;;20.50;56.90;;;;;;4994939;28;20018;-73
2022/01/08 04:57:59;;;;;;;24.02;12.45;;;20.50;56.80;;;;;;4976930;28;20034;-73
2022/01/08 05:00:25;;;;;;;20.80;12.27;;;20.50;57.00;;;;;;4994677;28;20029;-74
2022/01/08 05:02:51;;;;;;;24.17;13.63;;;20.50;56.70;;;;;;4977121;28;20042;-73
2022/01/08 05:05:17;;;;;;;25.35;13.15;;;20.50;57.00;;;;;;4994674;28;20030;-73
2022/01/08 05:07:42;;;;;;;23.50;13.40;;;20.50;56.90;;;;;;4994167;28;20066;-73
2022/01/08 05:10:09;;;;;;;23.98;13.48;;;20.50;56.90;;;;;;4994590;28;20475;-73
2022/01/08 05:12:35;;;;;;;20.27;12.70;;;20.50;56.80;;;;;;4994489;28;20026;-73
2022/01/08 05:15:02;;;;;;;22.35;13.00;;;20.50;56.90;;;;;;4993550;28;20034;-73
2022/01/08 05:17:33;;;;;;;22.55;12.35;;;20.50;56.80;;;;;;4993702;28;20034;-73
2022/01/08 05:20:02;;;;;;;23.85;12.27;;;20.50;56.90;;;;;;4976941;28;20030;-73
2022/01/08 05:22:30;;;;;;;24.25;12.90;;;20.50;56.90;;;;;;4994122;28;20061;-74
2022/01/08 05:24:56;;;;;;;19.25;11.75;;;20.50;56.90;;;;;;4994204;28;20681;-73
2022/01/08 05:27:23;;;;;;;20.80;11.88;;;20.50;56.80;;;;;;4993766;28;20019;-73
2022/01/08 05:29:51;;;;;;;23.70;12.95;;;20.50;56.80;;;;;;4994102;28;20026;-73
2022/01/08 05:32:18;;;;;;;22.05;12.98;;;20.50;56.90;;;;;;4994296;28;20110;-74
2022/01/08 05:34:45;;;;;;;20.55;12.23;;;20.50;56.80;;;;;;4994028;28;20117;-73
2022/01/08 05:37:11;;;;;;;20.90;12.05;;;20.50;56.80;;;;;;4993750;28;20065;-74
2022/01/08 05:39:37;;;;;;;23.10;13.27;;;20.50;56.90;;;;;;4993892;28;20026;-74
2022/01/08 05:42:04;;;;;;;22.40;11.75;;;20.50;56.90;;;;;;4993909;28;20089;-73
2022/01/08 05:44:29;;;;;;;22.52;12.45;;;20.50;56.90;;;;;;4960259;28;20037;-73
2022/01/08 05:46:55;;;;;;;20.13;11.38;;;20.50;56.90;;;;;;4993611;28;20030;-74
2022/01/08 05:49:21;;;;;;;20.73;12.00;;;20.50;57.00;;;;;;4993787;28;20475;-74
2022/01/08 05:51:47;;;;;;;20.00;11.27;;;20.50;56.90;;;;;;4993809;28;20027;-74
2022/01/08 05:54:12;;;;;;;20.55;11.98;;;20.50;57.00;;;;;;4993532;28;20107;-74
2022/01/08 05:56:38;;;;;;;20.90;10.90;;;20.50;56.90;;;;;;4993447;28;20061;-74
2022/01/08 05:59:04;;;;;;;20.00;11.00;;;20.50;57.00;;;;;;4993641;28;20372;-73
2022/01/08 06:01:32;;;;;;;18.67;11.35;;;20.50;57.00;;;;;;4993501;28;20089;-75
2022/01/08 06:03:58;;;;;;;19.85;11.20;;;20.50;56.90;;;;;;4993437;28;20109;-75
2022/01/08 06:06:23;;;;;;;25.70;11.77;;;20.50;57.00;;;;;;4993269;28;20109;-74
2022/01/08 06:08:49;;;;;;;18.88;10.73;;;20.50;56.90;;;;;;4975907;28;20031;-75
2022/01/08 06:11:15;;;;;;;19.83;11.50;;;20.50;56.20;;;;;;4993425;28;20026;-74
2022/01/08 06:13:40;;;;;;;22.33;11.38;;;20.50;57.00;;;;;;4993201;28;20057;-74
2022/01/08 06:16:06;;;;;;;19.27;11.43;;;20.50;56.50;;;;;;4992947;28;20041;-74
2022/01/08 06:18:32;;;;;;;19.95;10.82;;;20.50;57.50;;;;;;4993050;28;20026;-74
2022/01/08 06:20:59;;;;;;;21.65;11.43;;;20.60;56.90;;;;;;4993441;28;20096;-74
2022/01/08 06:23:28;;;;;;;18.30;10.70;;;20.60;56.90;;;;;;4992964;28;20053;-74
2022/01/08 06:25:54;;;;;;;17.88;10.15;;;20.60;56.60;;;;;;4992639;28;20029;-74
2022/01/08 06:28:20;;;;;;;17.10;9.98;;;20.50;56.70;;;;;;4992837;28;20601;-74
2022/01/08 06:30:47;;;;;;;19.02;10.63;;;20.50;56.40;;;;;;4993026;28;20022;-74
2022/01/08 06:33:14;;;;;;;21.73;10.27;;;20.50;56.60;;;;;;4992940;28;20042;-74
2022/01/08 06:35:39;;;;;;;18.80;11.00;;;20.60;56.60;;;;;;4975603;28;20478;-73
2022/01/08 06:38:05;;;;;;;16.52;9.73;;;20.60;56.70;;;;;;4992643;28;20113;-74
2022/01/08 06:40:31;;;;;;;18.35;10.45;;;20.60;56.00;;;;;;4992917;28;20030;-74
2022/01/08 06:42:57;;;;;;;16.60;10.20;;;20.60;56.50;;;;;;4992390;28;20483;-74
2022/01/08 06:45:22;;;;;;;18.23;10.50;;;20.60;56.50;;;;;;4992890;28;20054;-73
2022/01/08 06:47:48;;;;;;;16.67;9.57;;;20.60;56.40;;;;;;4975017;28;20030;-73
2022/01/08 06:50:14;;;;;;;17.65;9.93;;;20.60;56.60;;;;;;4992842;28;20022;-74
2022/01/08 06:52:40;;;;;;;17.88;9.90;;;20.60;56.40;;;;;;4992781;28;20030;-74
2022/01/08 06:55:06;;;;;;;16.42;9.55;;;20.70;56.60;;;;;;4975470;28;20029;-73
2022/01/08 06:57:32;;;;;;;15.95;9.93;;;20.60;55.90;;;;;;4992435;28;20061;-74
2022/01/08 07:00:01;;;;;;;16.23;10.10;;;20.60;56.60;;;;;;4959207;28;20026;-74
2022/01/08 07:02:27;;;;;;;19.48;10.23;;;20.60;56.70;;;;;;4992915;28;20047;-74
2022/01/08 07:04:52;;;;;;;17.27;10.02;;;20.60;56.60;;;;;;4992713;28;20415;-74
2022/01/08 07:07:18;;;;;;;18.52;9.73;;;20.60;56.30;;;;;;4992378;28;20026;-73
2022/01/08 07:09:44;;;;;;;17.60;9.55;;;20.60;56.60;;;;;;4992403;28;20018;-74
2022/01/08 07:12:10;;;;;;;17.33;9.52;;;20.60;56.60;;;;;;4992688;28;20022;-73
2022/01/08 07:14:36;;;;;;;17.70;10.60;;;20.60;56.60;;;;;;4992505;28;20045;-74
2022/01/08 07:17:02;;;;;;;17.30;9.43;;;20.60;56.60;;;;;;4992331;28;20034;-74
2022/01/08 07:19:28;;;;;;;16.42;9.40;;;20.60;56.70;;;;;;4992241;28;20410;-74
2022/01/08 07:21:54;;;;;;;17.75;9.93;;;20.60;56.60;;;;;;4992601;28;20023;-74
2022/01/08 07:24:19;;;;;;;17.75;9.57;;;20.60;56.40;;;;;;4992462;28;20037;-74
2022/01/08 07:26:45;;;;;;;13.95;8.52;;;20.60;56.20;;;;;;4992205;28;20036;-74
2022/01/08 07:29:11;;;;;;;15.43;8.80;;;20.60;56.30;;;;;;4974950;28;20031;-74
2022/01/08 07:31:36;;;;;;;14.55;8.38;;;20.60;56.00;;;;;;4992372;28;20042;-75
2022/01/08 07:34:02;;;;;;;16.60;9.15;;;20.60;55.50;;;;;;4992433;28;20081;-74
2022/01/08 07:36:28;;;;;;;15.32;9.07;;;20.60;56.40;;;;;;4992009;28;20113;-74
2022/01/08 07:38:54;;;;;;;16.60;9.32;;;20.60;56.80;;;;;;4977736;28;20564;-74
2022/01/08 07:41:20;;;;;;;15.30;8.52;;;20.60;56.60;;;;;;4995890;28;20027;-74
2022/01/08 07:43:45;;;;;;;21.50;9.63;;;20.60;56.30;;;;;;4996348;28;20394;-74
2022/01/08 07:46:11;;;;;;;16.45;8.63;;;20.60;56.60;;;;;;4995729;28;20031;-74
2022/01/08 07:48:37;;;;;;;14.05;8.68;;;20.60;56.60;;;;;;4996177;28;20022;-75
2022/01/08 07:51:02;;;;;;;16.73;9.10;;;20.60;56.70;;;;;;4995620;28;20032;-75
2022/01/08 07:53:28;;;;;;;16.42;8.68;;;20.60;56.70;;;;;;4995811;28;20026;-74
2022/01/08 07:55:54;;;;;;;15.02;8.63;;;20.70;56.90;;;;;;4995486;28;20080;-73
2022/01/08 07:58:20;;;;;;;16.15;9.10;;;20.60;55.70;;;;;;4995824;28;20069;-74
2022/01/08 08:00:50;;;;;;;16.17;8.85;;;20.70;56.60;;;;;;4995845;28;20096;-74
2022/01/08 08:03:19;;;;;;;14.85;8.52;;;20.70;56.80;;;;;;4996034;28;20030;-73
2022/01/08 08:05:45;;;;;;;15.98;8.18;;;20.70;56.40;;;;;;4995399;28;20092;-74
2022/01/08 08:08:19;;;;;;;14.57;8.07;;;20.70;56.60;;;;;;4978225;28;20444;-74
2022/01/08 08:10:50;;;;;;;15.13;8.85;;;20.60;56.30;;;;;;4995694;28;20018;-74
2022/01/08 08:13:17;;;;;;;14.95;8.10;;;20.70;56.20;;;;;;4996106;28;20501;-74
2022/01/08 08:15:43;;;;;;;13.00;8.07;;;20.70;55.40;;;;;;4995298;28;20038;-74
2022/01/08 08:18:10;;;;;;;17.58;9.20;;;20.70;55.80;;;;;;4995377;28;20027;-74
2022/01/08 08:20:36;;;;;;;16.60;8.43;;;20.70;56.70;;;;;;4978106;28;20516;-74
2022/01/08 08:23:01;;;;;;;14.48;8.48;;;20.60;55.40;;;;;;4995388;28;20042;-74
2022/01/08 08:25:27;;;;;;;13.45;8.00;;;20.70;56.60;;;;;;4995353;28;20037;-74
2022/01/08 08:27:53;;;;;;;15.10;8.18;;;20.60;56.40;;;;;;4995121;28;20084;-74
2022/01/08 08:30:20;;;;;;;13.95;7.50;;;20.60;56.80;;;;;;4995323;28;20109;-74
2022/01/08 08:32:46;;;;;;;15.07;8.10;;;20.60;56.50;;;;;;4995234;28;20537;-74
2022/01/08 08:35:12;;;;;;;14.80;8.32;;;20.70;56.60;;;;;;4995167;28;20038;-74
2022/01/08 08:37:38;;;;;;;14.85;8.50;;;20.70;56.60;;;;;;4994756;28;20551;-74
2022/01/08 08:40:05;;;;;;;14.25;7.85;;;20.70;55.60;;;;;;4994968;28;20113;-74
2022/01/08 08:42:31;;;;;;;14.07;8.48;;;20.60;56.70;;;;;;4995000;28;20030;-74
2022/01/08 08:44:56;;;;;;;14.93;8.48;;;20.70;56.80;;;;;;4994982;28;20030;-74
2022/01/08 08:47:22;;;;;;;15.02;8.30;;;20.70;56.50;;;;;;4994931;28;20372;-74
2022/01/08 08:49:48;;;;;;;14.43;8.00;;;20.70;56.60;;;;;;4994848;28;20026;-74
2022/01/08 08:52:14;;;;;;;12.65;8.18;;;20.70;56.30;;;;;;4994764;28;20450;-75
2022/01/08 08:54:41;;;;;;;13.77;7.65;;;20.70;56.70;;;;;;4977530;28;20036;-74
2022/01/08 08:57:08;;;;;;;13.90;8.32;;;20.70;56.70;;;;;;4994561;28;20030;-74
2022/01/08 08:59:34;;;;;;;15.43;8.05;;;20.70;56.70;;;;;;4994797;28;20490;-74
2022/01/08 09:01:59;;;;;;;13.45;7.60;;;20.60;56.80;;;;;;4994738;28;20114;-74
2022/01/08 09:04:25;;;;;;;15.27;8.05;;;20.70;56.00;;;;;;4994726;28;20026;-74
2022/01/08 09:06:51;;;;;;;12.63;7.82;;;20.70;56.50;;;;;;4994322;28;20030;-74
2022/01/08 09:09:17;;;;;;;12.90;7.53;;;20.60;56.40;;;;;;4994738;28;20449;-74
2022/01/08 09:11:43;;;;;;;13.85;7.55;;;20.70;55.40;;;;;;4994514;28;20030;-74
2022/01/08 09:14:08;;;;;;;12.63;7.28;;;20.70;56.70;;;;;;4994685;28;20041;-73
2022/01/08 09:16:35;;;;;;;13.02;7.75;;;20.70;56.60;;;;;;4994070;28;20035;-74
2022/01/08 09:19:01;;;;;;;12.93;7.47;;;20.70;56.80;;;;;;4994214;28;20041;-74
2022/01/08 09:21:27;;;;;;;15.38;7.60;;;20.70;56.70;;;;;;4994298;28;20030;-74
2022/01/08 09:23:53;;;;;;;12.25;7.07;;;20.70;56.60;;;;;;4994371;28;20062;-74
2022/01/08 09:26:19;;;;;;;12.43;7.03;;;20.70;55.30;;;;;;4994058;28;20077;-74
2022/01/08 09:28:45;;;;;;;13.15;6.75;;;20.70;55.20;;;;;;4994328;28;20093;-74
2022/01/08 09:31:12;;;;;;;15.75;7.50;;;20.70;55.40;;;;;;4994031;28;20035;-74
2022/01/08 09:33:38;;;;;;;12.40;6.90;;;20.70;55.80;;;;;;4994008;28;20161;-74
2022/01/08 09:36:05;;;;;;;13.07;7.47;;;20.70;56.30;;;;;;4976702;28;20498;-73
2022/01/08 09:38:31;;;;;;;11.90;7.10;;;20.70;56.30;;;;;;4976795;28;20034;-73
2022/01/08 09:40:57;;;;;;;12.10;7.20;;;20.70;55.60;;;;;;4993744;28;20054;-74
2022/01/08 09:43:23;;;;;;;12.88;7.50;;;20.70;56.50;;;;;;4994050;28;20442;-74
2022/01/08 09:45:49;;;;;;;11.80;7.05;;;20.70;56.60;;;;;;4993522;28;20026;-74
2022/01/08 09:48:16;;;;;;;10.95;6.47;;;20.70;56.50;;;;;;4993762;28;20018;-74
2022/01/08 09:50:43;;;;;;;13.02;6.82;;;20.70;56.40;;;;;;4993529;28;20022;-74
2022/01/08 09:53:10;;;;;;;13.02;7.18;;;20.70;56.60;;;;;;4993585;28;20034;-74
2022/01/08 09:55:35;;;;;;;12.23;7.05;;;20.70;57.20;;;;;;4993666;28;20038;-74
2022/01/08 09:58:02;;;;;;;13.18;7.20;;;20.70;55.90;;;;;;4993266;28;20081;-73
2022/01/08 10:00:32;;;;;;;17.80;7.38;;;20.70;56.60;;;;;;4993300;28;20114;-73
2022/01/08 10:03:20;;;;;;;14.93;6.82;;;20.80;56.70;;;;;;4976095;28;20038;-74
2022/01/08 10:05:54;;;;;;;12.77;6.75;;;20.80;56.70;;;;;;4993291;28;20085;-73
2022/01/08 10:08:41;;;;;;;21.02;7.00;;;20.80;57.50;;;;;;4993317;28;20435;-74
2022/01/08 10:11:07;;;;;;;15.05;7.20;;;20.70;57.30;;;;;;4993399;28;20022;-73
2022/01/08 10:13:36;;;;;;;14.18;7.40;;;20.80;57.40;;;;;;4993312;28;20026;-73
2022/01/08 10:18:49;;;;;;;18.40;7.40;;;20.70;56.50;;;;;;4993024;28;20113;-74
2022/01/08 10:21:32;;;;;;;13.60;7.03;;;20.80;57.30;;;;;;4993191;28;20054;-74
2022/01/08 10:24:08;;;;;;;11.90;6.82;;;20.80;56.00;;;;;;4993098;28;20541;-73
2022/01/08 10:26:41;;;;;;;11.50;6.80;;;20.70;57.10;;;;;;4992862;28;20054;-73
2022/01/08 10:29:12;;;;;;;13.00;6.40;;;20.80;57.10;;;;;;4975727;28;20026;-74
2022/01/08 10:31:40;;;;;;;12.25;6.60;;;20.80;56.90;;;;;;4975629;28;20451;-73
2022/01/08 10:34:12;;;;;;;13.40;6.72;;;20.80;57.10;;;;;;4992957;28;20061;-73
2022/01/08 10:36:40;;;;;;;13.40;6.55;;;20.80;56.40;;;;;;4975452;28;20137;-74
2022/01/08 10:39:12;;;;;;;12.27;6.55;;;20.80;56.30;;;;;;4993024;28;20034;-74
2022/01/08 10:41:43;;;;;;;15.98;6.80;;;20.80;56.50;;;;;;4992697;28;20058;-74
2022/01/08 10:44:12;;;;;;;12.63;6.50;;;20.80;56.10;;;;;;4975731;28;20061;-74
2022/01/08 10:46:39;;;;;;;11.93;6.83;;;20.80;56.70;;;;;;4975213;28;20485;-74
2022/01/08 10:49:05;;;;;;;13.13;7.28;;;20.80;56.90;;;;;;4975541;28;20026;-74
2022/01/08 10:51:36;;;;;;;12.52;6.63;;;20.80;56.60;;;;;;4992717;28;20068;-74
2022/01/08 10:54:26;;;;;;;18.05;6.90;;;20.80;55.80;;;;;;4975491;28;20038;-74
2022/01/08 10:56:56;;;;;;;14.88;6.70;;;20.80;56.60;;;;;;4992333;28;20069;-74
2022/01/08 10:59:22;;;;;;;;;;;20.80;56.90;;;;;;4992797;28;20030;-74
2022/01/08 11:01:59;;;;;;;11.32;6.07;;;20.80;56.80;;;;;;4992535;28;19959;-74
2022/01/08 11:04:34;;;;;;;12.27;6.53;;;20.80;56.50;;;;;;4992801;28;20046;-73
2022/01/08 11:07:04;;;;;;;11.20;6.68;;;20.80;56.40;;;;;;4974914;28;20026;-74
2022/01/08 11:09:30;;;;;;;14.43;6.30;;;20.80;57.30;;;;;;4943280;28;20038;-74
2022/01/08 11:11:59;;;;;;;12.15;6.55;;;20.80;56.70;;;;;;4992667;28;20037;-74
2022/01/08 11:17:33;;;;;;;16.80;6.85;;;20.90;57.50;;;;;;4978797;28;20037;-74
2022/01/08 11:20:08;;;;;;;14.93;6.88;;;20.90;58.80;;;;;;4946315;28;20046;-80
2022/01/08 11:22:36;;;;;;;11.75;5.85;;;20.60;46.30;;;;;;4996476;28;20030;-76
2022/01/08 11:25:14;;;;;;;9.60;5.20;;;20.10;43.30;;;;;;4996603;28;20023;-76
2022/01/08 11:27:53;;;;;;;10.10;5.63;;;20.00;46.20;;;;;;4996293;28;20433;-76
2022/01/08 11:30:22;;;;;;;13.13;6.10;;;20.20;50.80;;;;;;4996418;28;20218;-76
2022/01/08 11:32:49;;;;;;;10.35;4.95;;;20.30;50.00;;;;;;4978881;28;20026;-75
2022/01/08 11:35:16;;;;;;;11.85;4.80;;;20.40;49.50;;;;;;4990829;28;20026;-75
2022/01/08 11:37:49;;;;;;;8.95;4.00;;;20.50;49.60;;;;;;4995543;28;20030;-76
2022/01/08 11:40:18;;;;;;;7.00;3.50;;;20.50;49.00;;;;;;4996277;28;20023;-75
2022/01/08 11:42:44;;;;;;;9.73;3.97;;;20.60;48.70;;;;;;4978377;28;20038;-76
2022/01/08 11:45:15;;;;;;;8.07;3.88;;;20.60;49.40;;;;;;4995825;28;20371;-76
2022/01/08 11:47:47;;;;;;;7.97;3.78;;;20.70;49.30;;;;;;4995838;28;20031;-76
2022/01/08 11:50:17;;;;;;;8.73;3.58;;;20.70;49.50;;;;;;4973889;28;20443;-76
2022/01/08 11:52:43;;;;;;;;;;;20.70;49.70;;;;;;4977102;28;20037;-76
2022/01/08 11:55:09;;;;;;;9.13;3.10;;;20.80;49.90;;;;;;4976463;28;20371;-76
2022/01/08 11:57:35;;;;;;;8.90;3.47;;;20.80;50.10;;;;;;4942738;28;20031;-76
2022/01/08 12:00:02;;;;;;;8.52;3.10;;;20.80;50.50;;;;;;4958982;28;20034;-77
2022/01/08 12:02:38;;;;;;;10.13;3.78;;;20.80;50.40;;;;;;4976114;28;20035;-76
2022/01/08 12:05:05;;;;;;;15.52;5.97;;;20.70;50.50;;;;;;4976158;28;20033;-76
2022/01/08 12:07:39;;;;;;;13.77;6.25;;;20.70;50.30;;;;;;4976020;28;20058;-77
2022/01/08 12:10:22;;;;;;;17.05;7.70;;;20.70;49.70;;;;;;4958554;28;20491;-76
2022/01/08 12:13:00;;;;;;;16.05;7.35;;;20.70;49.60;;;;;;4974003;28;20094;-77
2022/01/08 12:15:40;;;;;;;15.52;6.20;;;20.70;50.00;;;;;;4976233;28;20566;-76
2022/01/08 12:18:09;;;;;;;16.38;7.30;;;20.70;49.40;;;;;;4994450;28;20038;-76
2022/01/08 12:20:40;;;;;;;21.90;7.43;;;20.80;49.70;;;;;;4961747;28;20523;-73
2022/01/08 12:23:30;;;;;;;21.73;7.72;;;20.80;49.80;;;;;;4994605;28;20029;-73
2022/01/08 12:25:59;;;;;;;21.33;7.22;;;20.80;49.70;;;;;;4994926;28;20543;-76
2022/01/08 12:28:46;;;;;;;22.25;7.07;;;20.80;50.00;;;;;;4995135;28;20034;-76
2022/01/08 12:31:29;;;;;;;23.20;7.13;;;20.80;50.20;;;;;;4995338;28;20073;-76
2022/01/08 12:34:20;;;;;;;22.00;6.82;;;20.90;50.40;;;;;;4978301;28;20042;-76
2022/01/08 12:36:54;;;;;;;18.65;6.43;;;20.90;50.40;;;;;;4978901;28;20022;-74
2022/01/08 12:39:25;;;;;;;18.20;7.20;;;20.90;50.50;;;;;;4975992;28;20068;-75
2022/01/08 12:42:20;;;;;;;24.30;6.70;;;20.90;51.00;;;;;;4994013;28;20034;-76
2022/01/08 12:45:07;;;;;;;17.52;7.05;;;20.90;50.90;;;;;;4994438;28;20030;-76
2022/01/08 12:47:47;;;;;;;20.83;7.10;;;20.90;51.10;;;;;;4992157;28;20031;-76
2022/01/08 12:50:28;;;;;;;18.75;6.55;;;20.90;51.20;;;;;;4994695;28;20515;-75
2022/01/08 12:53:03;;;;;;;17.92;7.05;;;20.90;51.40;;;;;;4995003;28;20034;-75
2022/01/08 12:55:40;;;;;;;16.52;6.55;;;20.90;51.50;;;;;;4994201;28;20530;-75
2022/01/08 12:58:17;;;;;;;20.63;6.57;;;20.90;51.60;;;;;;4994473;28;20038;-76
2022/01/08 13:00:53;;;;;;;15.70;6.50;;;20.90;51.60;;;;;;4994703;28;20224;-75
2022/01/08 13:03:31;;;;;;;16.48;6.45;;;20.90;51.60;;;;;;4994458;28;20100;-76